Rolla, Canada
Current Conditions -  °F | °C
As of 5:00 PM on Thursday 27 Nov 2014 (Local Time) from CYDQ Reporting Station
Light Snow Light Snow  
Wind Chill: -18°   Ceiling: 2600
Heat Index: -2°   Visibility: 1mi
Dew Point: -6°   Wind: 9mph
Humidity: 85%   Direction: 30°NNE
Pressure: 30.14"   Gusts: NA
Location:  55.9°N, 120.14°W
Report Text: CYDQ 280000Z AUTO 03008KT 1SM -SN OVC026 M19/M21 A3014 RMK SLP270
Loading
Personal Weather Stations






























Interactive Weather Map New forecast layout! Learn more

10-Day Weather Forecast

Advertisements
Track Severe Weather on mobile